<?xml version="1.0" encoding="UTF-8" standalone="no" ?>
<gpx xmlns="http://www.topografix.com/GPX/1/1" xmlns:xsi="http://www.w3.org/2001/XMLSchema-instance" xsi:schemaLocation="http://www.topografix.com/GPX/1/1 http://www.topografix.com/GPX/1/1/gpx.xsd" version="1.1" creator="VisuGPX - https://www.visugpx.com">
  <metadata>
    <name>Pic Bayle</name>
  </metadata>
  <trk>
    <name><![CDATA[Tracé 004]]></name>
    <trkseg>
      <trkpt lat="45.10356" lon="6.09228">
        <ele>2074.66</ele>
        <time>2019-06-08T05:00:33Z</time>
      </trkpt>
      <trkpt lat="45.10388" lon="6.09236">
        <ele>2233.28</ele>
        <time>2019-06-08T05:07:07Z</time>
      </trkpt>
      <trkpt lat="45.10426" lon="6.09262">
        <ele>2240.49</ele>
        <time>2019-06-08T05:07:47Z</time>
      </trkpt>
      <trkpt lat="45.10469" lon="6.09281">
        <ele>2246.74</ele>
        <time>2019-06-08T05:08:26Z</time>
      </trkpt>
      <trkpt lat="45.1051" lon="6.09303">
        <ele>2254.91</ele>
        <time>2019-06-08T05:09:09Z</time>
      </trkpt>
      <trkpt lat="45.10548" lon="6.09339">
        <ele>2265</ele>
        <time>2019-06-08T05:10:00Z</time>
      </trkpt>
      <trkpt lat="45.10561" lon="6.09389">
        <ele>2277.5</ele>
        <time>2019-06-08T05:11:08Z</time>
      </trkpt>
      <trkpt lat="45.10591" lon="6.09421">
        <ele>2289.04</ele>
        <time>2019-06-08T05:12:15Z</time>
      </trkpt>
      <trkpt lat="45.10599" lon="6.09479">
        <ele>2299.13</ele>
        <time>2019-06-08T05:13:21Z</time>
      </trkpt>
      <trkpt lat="45.10607" lon="6.09524">
        <ele>2312.11</ele>
        <time>2019-06-08T05:14:37Z</time>
      </trkpt>
      <trkpt lat="45.10585" lon="6.09561">
        <ele>2324.12</ele>
        <time>2019-06-08T05:15:42Z</time>
      </trkpt>
      <trkpt lat="45.10562" lon="6.09608">
        <ele>2332.3</ele>
        <time>2019-06-08T05:16:45Z</time>
      </trkpt>
      <trkpt lat="45.10536" lon="6.09666">
        <ele>2334.22</ele>
        <time>2019-06-08T05:17:30Z</time>
      </trkpt>
      <trkpt lat="45.10529" lon="6.09719">
        <ele>2339.51</ele>
        <time>2019-06-08T05:18:28Z</time>
      </trkpt>
      <trkpt lat="45.10573" lon="6.09739">
        <ele>2343.35</ele>
        <time>2019-06-08T05:19:12Z</time>
      </trkpt>
      <trkpt lat="45.10616" lon="6.09763">
        <ele>2344.79</ele>
        <time>2019-06-08T05:19:53Z</time>
      </trkpt>
      <trkpt lat="45.1066" lon="6.09786">
        <ele>2347.68</ele>
        <time>2019-06-08T05:20:37Z</time>
      </trkpt>
      <trkpt lat="45.10707" lon="6.09794">
        <ele>2351.04</ele>
        <time>2019-06-08T05:21:20Z</time>
      </trkpt>
      <trkpt lat="45.10754" lon="6.09796">
        <ele>2354.41</ele>
        <time>2019-06-08T05:22:03Z</time>
      </trkpt>
      <trkpt lat="45.108" lon="6.09789">
        <ele>2358.25</ele>
        <time>2019-06-08T05:22:45Z</time>
      </trkpt>
      <trkpt lat="45.10845" lon="6.09791">
        <ele>2361.62</ele>
        <time>2019-06-08T05:23:27Z</time>
      </trkpt>
      <trkpt lat="45.1089" lon="6.09791">
        <ele>2364.5</ele>
        <time>2019-06-08T05:24:04Z</time>
      </trkpt>
      <trkpt lat="45.10936" lon="6.09779">
        <ele>2365.94</ele>
        <time>2019-06-08T05:24:46Z</time>
      </trkpt>
      <trkpt lat="45.10981" lon="6.09787">
        <ele>2369.79</ele>
        <time>2019-06-08T05:25:28Z</time>
      </trkpt>
      <trkpt lat="45.11024" lon="6.09808">
        <ele>2375.55</ele>
        <time>2019-06-08T05:26:15Z</time>
      </trkpt>
      <trkpt lat="45.11053" lon="6.09806">
        <ele>2378.92</ele>
        <time>2019-06-08T05:28:37Z</time>
      </trkpt>
      <trkpt lat="45.11087" lon="6.09818">
        <ele>2382.76</ele>
        <time>2019-06-08T05:29:42Z</time>
      </trkpt>
      <trkpt lat="45.1113" lon="6.09837">
        <ele>2389.01</ele>
        <time>2019-06-08T05:30:28Z</time>
      </trkpt>
      <trkpt lat="45.11173" lon="6.09847">
        <ele>2394.3</ele>
        <time>2019-06-08T05:31:18Z</time>
      </trkpt>
      <trkpt lat="45.11216" lon="6.09869">
        <ele>2402.95</ele>
        <time>2019-06-08T05:32:20Z</time>
      </trkpt>
      <trkpt lat="45.11259" lon="6.09885">
        <ele>2410.16</ele>
        <time>2019-06-08T05:33:22Z</time>
      </trkpt>
      <trkpt lat="45.11295" lon="6.0992">
        <ele>2420.26</ele>
        <time>2019-06-08T05:34:30Z</time>
      </trkpt>
      <trkpt lat="45.11338" lon="6.09936">
        <ele>2429.39</ele>
        <time>2019-06-08T05:35:29Z</time>
      </trkpt>
      <trkpt lat="45.1138" lon="6.09957">
        <ele>2437.56</ele>
        <time>2019-06-08T05:36:27Z</time>
      </trkpt>
      <trkpt lat="45.11413" lon="6.09994">
        <ele>2447.17</ele>
        <time>2019-06-08T05:37:27Z</time>
      </trkpt>
      <trkpt lat="45.11439" lon="6.1002">
        <ele>2457.27</ele>
        <time>2019-06-08T05:38:27Z</time>
      </trkpt>
      <trkpt lat="45.1146" lon="6.10059">
        <ele>2468.8</ele>
        <time>2019-06-08T05:39:37Z</time>
      </trkpt>
      <trkpt lat="45.11468" lon="6.10103">
        <ele>2480.34</ele>
        <time>2019-06-08T05:40:49Z</time>
      </trkpt>
      <trkpt lat="45.11494" lon="6.1014">
        <ele>2491.87</ele>
        <time>2019-06-08T05:41:59Z</time>
      </trkpt>
      <trkpt lat="45.11525" lon="6.10156">
        <ele>2502.45</ele>
        <time>2019-06-08T05:43:10Z</time>
      </trkpt>
      <trkpt lat="45.11542" lon="6.10186">
        <ele>2514.47</ele>
        <time>2019-06-08T05:44:24Z</time>
      </trkpt>
      <trkpt lat="45.11561" lon="6.10212">
        <ele>2524.56</ele>
        <time>2019-06-08T05:45:37Z</time>
      </trkpt>
      <trkpt lat="45.11546" lon="6.10254">
        <ele>2534.17</ele>
        <time>2019-06-08T05:47:02Z</time>
      </trkpt>
      <trkpt lat="45.11548" lon="6.10294">
        <ele>2545.71</ele>
        <time>2019-06-08T05:48:18Z</time>
      </trkpt>
      <trkpt lat="45.11551" lon="6.10332">
        <ele>2552.92</ele>
        <time>2019-06-08T05:49:37Z</time>
      </trkpt>
      <trkpt lat="45.11576" lon="6.10356">
        <ele>2563.01</ele>
        <time>2019-06-08T05:50:38Z</time>
      </trkpt>
      <trkpt lat="45.11599" lon="6.10384">
        <ele>2574.07</ele>
        <time>2019-06-08T05:52:01Z</time>
      </trkpt>
      <trkpt lat="45.11634" lon="6.10394">
        <ele>2582.72</ele>
        <time>2019-06-08T05:53:08Z</time>
      </trkpt>
      <trkpt lat="45.11675" lon="6.10387">
        <ele>2588.01</ele>
        <time>2019-06-08T05:54:01Z</time>
      </trkpt>
      <trkpt lat="45.11716" lon="6.10415">
        <ele>2596.18</ele>
        <time>2019-06-08T05:54:58Z</time>
      </trkpt>
      <trkpt lat="45.11758" lon="6.10429">
        <ele>2607.71</ele>
        <time>2019-06-08T05:56:04Z</time>
      </trkpt>
      <trkpt lat="45.11802" lon="6.10434">
        <ele>2616.37</ele>
        <time>2019-06-08T05:57:10Z</time>
      </trkpt>
      <trkpt lat="45.11837" lon="6.10424">
        <ele>2619.73</ele>
        <time>2019-06-08T05:58:22Z</time>
      </trkpt>
      <trkpt lat="45.11868" lon="6.10457">
        <ele>2626.94</ele>
        <time>2019-06-08T06:01:40Z</time>
      </trkpt>
      <trkpt lat="45.11912" lon="6.1049">
        <ele>2632.23</ele>
        <time>2019-06-08T06:02:41Z</time>
      </trkpt>
      <trkpt lat="45.11958" lon="6.10505">
        <ele>2637.03</ele>
        <time>2019-06-08T06:03:33Z</time>
      </trkpt>
      <trkpt lat="45.12003" lon="6.10526">
        <ele>2640.88</ele>
        <time>2019-06-08T06:04:19Z</time>
      </trkpt>
      <trkpt lat="45.12046" lon="6.10536">
        <ele>2645.69</ele>
        <time>2019-06-08T06:05:06Z</time>
      </trkpt>
      <trkpt lat="45.1209" lon="6.10566">
        <ele>2649.53</ele>
        <time>2019-06-08T06:05:52Z</time>
      </trkpt>
      <trkpt lat="45.12132" lon="6.106">
        <ele>2651.93</ele>
        <time>2019-06-08T06:06:36Z</time>
      </trkpt>
      <trkpt lat="45.12162" lon="6.10649">
        <ele>2653.86</ele>
        <time>2019-06-08T06:07:19Z</time>
      </trkpt>
      <trkpt lat="45.12177" lon="6.10695">
        <ele>2653.38</ele>
        <time>2019-06-08T06:08:00Z</time>
      </trkpt>
      <trkpt lat="45.12224" lon="6.10706">
        <ele>2654.82</ele>
        <time>2019-06-08T06:08:54Z</time>
      </trkpt>
      <trkpt lat="45.12276" lon="6.10719">
        <ele>2657.22</ele>
        <time>2019-06-08T06:09:37Z</time>
      </trkpt>
      <trkpt lat="45.12322" lon="6.10732">
        <ele>2660.59</ele>
        <time>2019-06-08T06:10:23Z</time>
      </trkpt>
      <trkpt lat="45.12365" lon="6.10749">
        <ele>2666.35</ele>
        <time>2019-06-08T06:11:13Z</time>
      </trkpt>
      <trkpt lat="45.12404" lon="6.10763">
        <ele>2672.12</ele>
        <time>2019-06-08T06:11:59Z</time>
      </trkpt>
      <trkpt lat="45.12445" lon="6.10784">
        <ele>2676.93</ele>
        <time>2019-06-08T06:12:46Z</time>
      </trkpt>
      <trkpt lat="45.12488" lon="6.10794">
        <ele>2682.7</ele>
        <time>2019-06-08T06:13:40Z</time>
      </trkpt>
      <trkpt lat="45.12534" lon="6.10792">
        <ele>2689.91</ele>
        <time>2019-06-08T06:14:37Z</time>
      </trkpt>
      <trkpt lat="45.12567" lon="6.10834">
        <ele>2691.83</ele>
        <time>2019-06-08T06:15:20Z</time>
      </trkpt>
      <trkpt lat="45.12598" lon="6.10887">
        <ele>2696.64</ele>
        <time>2019-06-08T06:16:06Z</time>
      </trkpt>
      <trkpt lat="45.12618" lon="6.10938">
        <ele>2700</ele>
        <time>2019-06-08T06:16:54Z</time>
      </trkpt>
      <trkpt lat="45.12638" lon="6.10984">
        <ele>2705.77</ele>
        <time>2019-06-08T06:17:45Z</time>
      </trkpt>
      <trkpt lat="45.12654" lon="6.11034">
        <ele>2712.02</ele>
        <time>2019-06-08T06:18:41Z</time>
      </trkpt>
      <trkpt lat="45.12669" lon="6.11099">
        <ele>2719.23</ele>
        <time>2019-06-08T06:19:37Z</time>
      </trkpt>
      <trkpt lat="45.12701" lon="6.11145">
        <ele>2724.03</ele>
        <time>2019-06-08T06:20:29Z</time>
      </trkpt>
      <trkpt lat="45.12734" lon="6.11183">
        <ele>2727.88</ele>
        <time>2019-06-08T06:22:57Z</time>
      </trkpt>
      <trkpt lat="45.12751" lon="6.11241">
        <ele>2731.24</ele>
        <time>2019-06-08T06:23:41Z</time>
      </trkpt>
      <trkpt lat="45.12764" lon="6.11297">
        <ele>2736.53</ele>
        <time>2019-06-08T06:24:36Z</time>
      </trkpt>
      <trkpt lat="45.12783" lon="6.11358">
        <ele>2743.26</ele>
        <time>2019-06-08T06:25:34Z</time>
      </trkpt>
      <trkpt lat="45.12804" lon="6.1141">
        <ele>2751.43</ele>
        <time>2019-06-08T06:26:35Z</time>
      </trkpt>
      <trkpt lat="45.12822" lon="6.1145">
        <ele>2759.12</ele>
        <time>2019-06-08T06:27:38Z</time>
      </trkpt>
      <trkpt lat="45.12863" lon="6.11449">
        <ele>2766.81</ele>
        <time>2019-06-08T06:29:03Z</time>
      </trkpt>
      <trkpt lat="45.12861" lon="6.11497">
        <ele>2775.46</ele>
        <time>2019-06-08T06:30:02Z</time>
      </trkpt>
      <trkpt lat="45.12859" lon="6.11558">
        <ele>2783.15</ele>
        <time>2019-06-08T06:31:03Z</time>
      </trkpt>
      <trkpt lat="45.12853" lon="6.11599">
        <ele>2793.73</ele>
        <time>2019-06-08T06:32:14Z</time>
      </trkpt>
      <trkpt lat="45.12897" lon="6.11612">
        <ele>2803.34</ele>
        <time>2019-06-08T06:33:26Z</time>
      </trkpt>
      <trkpt lat="45.1289" lon="6.11653">
        <ele>2811.99</ele>
        <time>2019-06-08T06:34:34Z</time>
      </trkpt>
      <trkpt lat="45.12931" lon="6.1168">
        <ele>2820.65</ele>
        <time>2019-06-08T06:35:40Z</time>
      </trkpt>
      <trkpt lat="45.12924" lon="6.1171">
        <ele>2828.34</ele>
        <time>2019-06-08T06:36:49Z</time>
      </trkpt>
      <trkpt lat="45.12951" lon="6.11743">
        <ele>2838.91</ele>
        <time>2019-06-08T06:38:00Z</time>
      </trkpt>
      <trkpt lat="45.12978" lon="6.11792">
        <ele>2847.56</ele>
        <time>2019-06-08T06:39:03Z</time>
      </trkpt>
      <trkpt lat="45.12986" lon="6.11834">
        <ele>2856.69</ele>
        <time>2019-06-08T06:40:08Z</time>
      </trkpt>
      <trkpt lat="45.1302" lon="6.11862">
        <ele>2866.79</ele>
        <time>2019-06-08T06:41:20Z</time>
      </trkpt>
      <trkpt lat="45.13041" lon="6.119">
        <ele>2875.92</ele>
        <time>2019-06-08T06:42:34Z</time>
      </trkpt>
      <trkpt lat="45.13066" lon="6.11923">
        <ele>2883.13</ele>
        <time>2019-06-08T06:44:18Z</time>
      </trkpt>
      <trkpt lat="45.13076" lon="6.11981">
        <ele>2894.19</ele>
        <time>2019-06-08T06:45:30Z</time>
      </trkpt>
      <trkpt lat="45.13063" lon="6.12034">
        <ele>2904.28</ele>
        <time>2019-06-08T06:46:34Z</time>
      </trkpt>
      <trkpt lat="45.13076" lon="6.12092">
        <ele>2911.01</ele>
        <time>2019-06-08T06:47:34Z</time>
      </trkpt>
      <trkpt lat="45.13114" lon="6.12119">
        <ele>2916.78</ele>
        <time>2019-06-08T06:48:29Z</time>
      </trkpt>
      <trkpt lat="45.13157" lon="6.12137">
        <ele>2920.62</ele>
        <time>2019-06-08T06:49:16Z</time>
      </trkpt>
      <trkpt lat="45.13195" lon="6.12165">
        <ele>2924.95</ele>
        <time>2019-06-08T06:50:05Z</time>
      </trkpt>
      <trkpt lat="45.13233" lon="6.12199">
        <ele>2928.79</ele>
        <time>2019-06-08T06:50:55Z</time>
      </trkpt>
      <trkpt lat="45.13267" lon="6.12235">
        <ele>2934.56</ele>
        <time>2019-06-08T06:51:48Z</time>
      </trkpt>
      <trkpt lat="45.13306" lon="6.12263">
        <ele>2943.69</ele>
        <time>2019-06-08T06:52:57Z</time>
      </trkpt>
      <trkpt lat="45.13351" lon="6.12277">
        <ele>2951.38</ele>
        <time>2019-06-08T06:54:02Z</time>
      </trkpt>
      <trkpt lat="45.13396" lon="6.12273">
        <ele>2960.04</ele>
        <time>2019-06-08T06:55:11Z</time>
      </trkpt>
      <trkpt lat="45.13444" lon="6.12267">
        <ele>2968.21</ele>
        <time>2019-06-08T06:56:22Z</time>
      </trkpt>
      <trkpt lat="45.13452" lon="6.12311">
        <ele>2977.82</ele>
        <time>2019-06-08T06:58:08Z</time>
      </trkpt>
      <trkpt lat="45.13433" lon="6.12342">
        <ele>2983.59</ele>
        <time>2019-06-08T07:04:38Z</time>
      </trkpt>
      <trkpt lat="45.134" lon="6.12379">
        <ele>2995.12</ele>
        <time>2019-06-08T07:05:54Z</time>
      </trkpt>
      <trkpt lat="45.13414" lon="6.12404">
        <ele>3005.7</ele>
        <time>2019-06-08T07:07:07Z</time>
      </trkpt>
      <trkpt lat="45.13452" lon="6.12427">
        <ele>3016.27</ele>
        <time>2019-06-08T07:08:16Z</time>
      </trkpt>
      <trkpt lat="45.13484" lon="6.12466">
        <ele>3023.96</ele>
        <time>2019-06-08T07:09:28Z</time>
      </trkpt>
      <trkpt lat="45.13513" lon="6.1251">
        <ele>3033.1</ele>
        <time>2019-06-08T07:10:46Z</time>
      </trkpt>
      <trkpt lat="45.13516" lon="6.12552">
        <ele>3041.75</ele>
        <time>2019-06-08T07:12:11Z</time>
      </trkpt>
      <trkpt lat="45.13537" lon="6.12601">
        <ele>3050.88</ele>
        <time>2019-06-08T07:13:36Z</time>
      </trkpt>
      <trkpt lat="45.13505" lon="6.12597">
        <ele>3060.49</ele>
        <time>2019-06-08T07:15:05Z</time>
      </trkpt>
      <trkpt lat="45.13526" lon="6.12635">
        <ele>3069.63</ele>
        <time>2019-06-08T07:16:45Z</time>
      </trkpt>
      <trkpt lat="45.13501" lon="6.12633">
        <ele>3079.72</ele>
        <time>2019-06-08T07:18:10Z</time>
      </trkpt>
      <trkpt lat="45.13476" lon="6.12641">
        <ele>3086.45</ele>
        <time>2019-06-08T07:19:41Z</time>
      </trkpt>
      <trkpt lat="45.13475" lon="6.12663">
        <ele>3096.06</ele>
        <time>2019-06-08T07:21:45Z</time>
      </trkpt>
      <trkpt lat="45.1347" lon="6.12682">
        <ele>3105.68</ele>
        <time>2019-06-08T07:23:19Z</time>
      </trkpt>
      <trkpt lat="45.13444" lon="6.12698">
        <ele>3115.77</ele>
        <time>2019-06-08T07:25:17Z</time>
      </trkpt>
      <trkpt lat="45.13452" lon="6.1272">
        <ele>3122.98</ele>
        <time>2019-06-08T07:26:39Z</time>
      </trkpt>
      <trkpt lat="45.13439" lon="6.12732">
        <ele>3133.07</ele>
        <time>2019-06-08T07:28:18Z</time>
      </trkpt>
      <trkpt lat="45.13412" lon="6.12743">
        <ele>3142.21</ele>
        <time>2019-06-08T07:29:54Z</time>
      </trkpt>
      <trkpt lat="45.13414" lon="6.12756">
        <ele>3150.86</ele>
        <time>2019-06-08T07:31:36Z</time>
      </trkpt>
      <trkpt lat="45.1345" lon="6.12789">
        <ele>3162.39</ele>
        <time>2019-06-08T07:33:44Z</time>
      </trkpt>
      <trkpt lat="45.13496" lon="6.12805">
        <ele>3173.93</ele>
        <time>2019-06-08T07:35:13Z</time>
      </trkpt>
      <trkpt lat="45.13531" lon="6.12834">
        <ele>3184.02</ele>
        <time>2019-06-08T07:41:38Z</time>
      </trkpt>
      <trkpt lat="45.13507" lon="6.12869">
        <ele>3196.52</ele>
        <time>2019-06-08T07:43:27Z</time>
      </trkpt>
      <trkpt lat="45.1352" lon="6.12897">
        <ele>3205.65</ele>
        <time>2019-06-08T07:45:20Z</time>
      </trkpt>
      <trkpt lat="45.13503" lon="6.12914">
        <ele>3216.23</ele>
        <time>2019-06-08T07:47:02Z</time>
      </trkpt>
      <trkpt lat="45.13501" lon="6.12943">
        <ele>3226.8</ele>
        <time>2019-06-08T07:49:07Z</time>
      </trkpt>
      <trkpt lat="45.13502" lon="6.12956">
        <ele>3224.88</ele>
        <time>2019-06-08T08:03:43Z</time>
      </trkpt>
      <trkpt lat="45.13455" lon="6.12945">
        <ele>3240.26</ele>
        <time>2019-06-08T08:07:05Z</time>
      </trkpt>
      <trkpt lat="45.13437" lon="6.12957">
        <ele>3262.37</ele>
        <time>2019-06-08T08:12:55Z</time>
      </trkpt>
      <trkpt lat="45.1343" lon="6.13003">
        <ele>3286.89</ele>
        <time>2019-06-08T08:17:24Z</time>
      </trkpt>
      <trkpt lat="45.13405" lon="6.13023">
        <ele>3321.49</ele>
        <time>2019-06-08T08:23:52Z</time>
      </trkpt>
      <trkpt lat="45.13429" lon="6.13076">
        <ele>3333.51</ele>
        <time>2019-06-08T08:26:01Z</time>
      </trkpt>
      <trkpt lat="45.13445" lon="6.13092">
        <ele>3339.28</ele>
        <time>2019-06-08T08:39:41Z</time>
      </trkpt>
      <trkpt lat="45.13481" lon="6.13129">
        <ele>3335.43</ele>
        <time>2019-06-08T08:40:19Z</time>
      </trkpt>
      <trkpt lat="45.13517" lon="6.13168">
        <ele>3334.47</ele>
        <time>2019-06-08T08:40:59Z</time>
      </trkpt>
      <trkpt lat="45.1355" lon="6.1321">
        <ele>3333.99</ele>
        <time>2019-06-08T08:41:37Z</time>
      </trkpt>
      <trkpt lat="45.13588" lon="6.13251">
        <ele>3333.51</ele>
        <time>2019-06-08T08:42:23Z</time>
      </trkpt>
      <trkpt lat="45.1362" lon="6.13299">
        <ele>3333.99</ele>
        <time>2019-06-08T08:43:26Z</time>
      </trkpt>
      <trkpt lat="45.13643" lon="6.13358">
        <ele>3341.2</ele>
        <time>2019-06-08T08:45:50Z</time>
      </trkpt>
      <trkpt lat="45.13665" lon="6.13411">
        <ele>3347.93</ele>
        <time>2019-06-08T08:47:07Z</time>
      </trkpt>
      <trkpt lat="45.13684" lon="6.13445">
        <ele>3361.87</ele>
        <time>2019-06-08T08:53:43Z</time>
      </trkpt>
      <trkpt lat="45.13699" lon="6.13491">
        <ele>3380.61</ele>
        <time>2019-06-08T08:56:48Z</time>
      </trkpt>
      <trkpt lat="45.13719" lon="6.13531">
        <ele>3404.65</ele>
        <time>2019-06-08T09:00:58Z</time>
      </trkpt>
      <trkpt lat="45.13745" lon="6.1352">
        <ele>3429.16</ele>
        <time>2019-06-08T09:05:28Z</time>
      </trkpt>
      <trkpt lat="45.13759" lon="6.13561">
        <ele>3445.98</ele>
        <time>2019-06-08T09:09:00Z</time>
      </trkpt>
      <trkpt lat="45.13785" lon="6.13576">
        <ele>3458</ele>
        <time>2019-06-08T09:14:07Z</time>
      </trkpt>
      <trkpt lat="45.13787" lon="6.1358">
        <ele>3458</ele>
        <time>2019-06-08T09:26:02Z</time>
      </trkpt>
      <trkpt lat="45.13753" lon="6.13568">
        <ele>3450.79</ele>
        <time>2019-06-08T09:41:49Z</time>
      </trkpt>
      <trkpt lat="45.13722" lon="6.13603">
        <ele>3425.31</ele>
        <time>2019-06-08T09:42:19Z</time>
      </trkpt>
      <trkpt lat="45.13685" lon="6.13594">
        <ele>3394.07</ele>
        <time>2019-06-08T09:42:36Z</time>
      </trkpt>
      <trkpt lat="45.13655" lon="6.13596">
        <ele>3369.56</ele>
        <time>2019-06-08T09:42:51Z</time>
      </trkpt>
      <trkpt lat="45.13663" lon="6.13532">
        <ele>3365.71</ele>
        <time>2019-06-08T09:43:34Z</time>
      </trkpt>
      <trkpt lat="45.1366" lon="6.13459">
        <ele>3360.43</ele>
        <time>2019-06-08T09:43:42Z</time>
      </trkpt>
      <trkpt lat="45.13645" lon="6.13388">
        <ele>3352.25</ele>
        <time>2019-06-08T09:43:49Z</time>
      </trkpt>
      <trkpt lat="45.13624" lon="6.13329">
        <ele>3349.37</ele>
        <time>2019-06-08T09:43:56Z</time>
      </trkpt>
      <trkpt lat="45.1359" lon="6.13277">
        <ele>3342.64</ele>
        <time>2019-06-08T09:44:02Z</time>
      </trkpt>
      <trkpt lat="45.13546" lon="6.13252">
        <ele>3333.51</ele>
        <time>2019-06-08T09:44:08Z</time>
      </trkpt>
      <trkpt lat="45.13501" lon="6.1323">
        <ele>3328.7</ele>
        <time>2019-06-08T09:44:14Z</time>
      </trkpt>
      <trkpt lat="45.13457" lon="6.13214">
        <ele>3323.9</ele>
        <time>2019-06-08T09:44:20Z</time>
      </trkpt>
      <trkpt lat="45.1341" lon="6.13202">
        <ele>3320.53</ele>
        <time>2019-06-08T09:44:27Z</time>
      </trkpt>
      <trkpt lat="45.13365" lon="6.13186">
        <ele>3317.65</ele>
        <time>2019-06-08T09:44:34Z</time>
      </trkpt>
      <trkpt lat="45.13331" lon="6.13179">
        <ele>3307.55</ele>
        <time>2019-06-08T09:45:44Z</time>
      </trkpt>
      <trkpt lat="45.13289" lon="6.13169">
        <ele>3293.13</ele>
        <time>2019-06-08T09:45:56Z</time>
      </trkpt>
      <trkpt lat="45.13266" lon="6.13121">
        <ele>3281.6</ele>
        <time>2019-06-08T09:46:06Z</time>
      </trkpt>
      <trkpt lat="45.13246" lon="6.13061">
        <ele>3274.87</ele>
        <time>2019-06-08T09:46:18Z</time>
      </trkpt>
      <trkpt lat="45.13211" lon="6.13044">
        <ele>3261.89</ele>
        <time>2019-06-08T09:46:29Z</time>
      </trkpt>
      <trkpt lat="45.13168" lon="6.13041">
        <ele>3237.38</ele>
        <time>2019-06-08T09:46:39Z</time>
      </trkpt>
      <trkpt lat="45.13128" lon="6.13029">
        <ele>3219.11</ele>
        <time>2019-06-08T09:46:48Z</time>
      </trkpt>
      <trkpt lat="45.1311" lon="6.1301">
        <ele>3208.54</ele>
        <time>2019-06-08T09:48:02Z</time>
      </trkpt>
      <trkpt lat="45.13063" lon="6.13019">
        <ele>3186.91</ele>
        <time>2019-06-08T09:48:12Z</time>
      </trkpt>
      <trkpt lat="45.13025" lon="6.13002">
        <ele>3171.05</ele>
        <time>2019-06-08T09:48:20Z</time>
      </trkpt>
      <trkpt lat="45.12985" lon="6.12976">
        <ele>3169.6</ele>
        <time>2019-06-08T09:48:40Z</time>
      </trkpt>
      <trkpt lat="45.12957" lon="6.12957">
        <ele>3168.64</ele>
        <time>2019-06-08T09:56:12Z</time>
      </trkpt>
      <trkpt lat="45.12925" lon="6.1292">
        <ele>3174.89</ele>
        <time>2019-06-08T09:57:32Z</time>
      </trkpt>
      <trkpt lat="45.12927" lon="6.12895">
        <ele>3185.47</ele>
        <time>2019-06-08T09:59:18Z</time>
      </trkpt>
      <trkpt lat="45.12921" lon="6.12868">
        <ele>3194.6</ele>
        <time>2019-06-08T10:01:04Z</time>
      </trkpt>
      <trkpt lat="45.12874" lon="6.12843">
        <ele>3203.25</ele>
        <time>2019-06-08T10:03:26Z</time>
      </trkpt>
      <trkpt lat="45.12846" lon="6.12824">
        <ele>3211.42</ele>
        <time>2019-06-08T10:04:37Z</time>
      </trkpt>
      <trkpt lat="45.12883" lon="6.12798">
        <ele>3220.07</ele>
        <time>2019-06-08T10:06:17Z</time>
      </trkpt>
      <trkpt lat="45.12842" lon="6.12768">
        <ele>3228.73</ele>
        <time>2019-06-08T10:07:31Z</time>
      </trkpt>
      <trkpt lat="45.12802" lon="6.12745">
        <ele>3236.42</ele>
        <time>2019-06-08T10:08:38Z</time>
      </trkpt>
      <trkpt lat="45.12773" lon="6.12733">
        <ele>3243.14</ele>
        <time>2019-06-08T10:10:25Z</time>
      </trkpt>
      <trkpt lat="45.12709" lon="6.12757">
        <ele>3250.83</ele>
        <time>2019-06-08T10:11:31Z</time>
      </trkpt>
      <trkpt lat="45.12677" lon="6.12776">
        <ele>3256.12</ele>
        <time>2019-06-08T10:12:30Z</time>
      </trkpt>
      <trkpt lat="45.12652" lon="6.12802">
        <ele>3260.45</ele>
        <time>2019-06-08T10:13:37Z</time>
      </trkpt>
      <trkpt lat="45.1264" lon="6.12808">
        <ele>3266.7</ele>
        <time>2019-06-08T10:15:37Z</time>
      </trkpt>
      <trkpt lat="45.1263" lon="6.12786">
        <ele>3275.35</ele>
        <time>2019-06-08T10:17:35Z</time>
      </trkpt>
      <trkpt lat="45.12607" lon="6.1283">
        <ele>3281.6</ele>
        <time>2019-06-08T10:18:42Z</time>
      </trkpt>
      <trkpt lat="45.12574" lon="6.12862">
        <ele>3284</ele>
        <time>2019-06-08T10:20:20Z</time>
      </trkpt>
      <trkpt lat="45.12548" lon="6.12864">
        <ele>3290.25</ele>
        <time>2019-06-08T10:21:44Z</time>
      </trkpt>
      <trkpt lat="45.12568" lon="6.12832">
        <ele>3298.42</ele>
        <time>2019-06-08T10:23:27Z</time>
      </trkpt>
      <trkpt lat="45.12583" lon="6.12796">
        <ele>3305.15</ele>
        <time>2019-06-08T10:32:16Z</time>
      </trkpt>
      <trkpt lat="45.12558" lon="6.12842">
        <ele>3299.86</ele>
        <time>2019-06-08T10:33:52Z</time>
      </trkpt>
      <trkpt lat="45.12558" lon="6.12844">
        <ele>3276.3671875</ele>
        <time>2019-06-08T11:00:11Z</time>
      </trkpt>
      <trkpt lat="45.1254" lon="6.12886">
        <ele>3261.58203125</ele>
        <time>2019-06-08T11:01:26Z</time>
      </trkpt>
      <trkpt lat="45.1249" lon="6.12907">
        <ele>3248.43359375</ele>
        <time>2019-06-08T11:01:53Z</time>
      </trkpt>
      <trkpt lat="45.12418" lon="6.12932">
        <ele>3223.265625</ele>
        <time>2019-06-08T11:02:09Z</time>
      </trkpt>
      <trkpt lat="45.12345" lon="6.12889">
        <ele>3184.80078125</ele>
        <time>2019-06-08T11:02:27Z</time>
      </trkpt>
      <trkpt lat="45.12273" lon="6.12846">
        <ele>3135.90625</ele>
        <time>2019-06-08T11:02:40Z</time>
      </trkpt>
      <trkpt lat="45.1223" lon="6.12793">
        <ele>3106.73828125</ele>
        <time>2019-06-08T11:03:26Z</time>
      </trkpt>
      <trkpt lat="45.12194" lon="6.127">
        <ele>3090.83984375</ele>
        <time>2019-06-08T11:03:40Z</time>
      </trkpt>
      <trkpt lat="45.12322" lon="6.12515">
        <ele>3131.77734375</ele>
        <time>2019-06-08T11:03:54Z</time>
      </trkpt>
      <trkpt lat="45.12322" lon="6.12517">
        <ele>3096.54</ele>
        <time>2019-06-08T11:04:06Z</time>
      </trkpt>
      <trkpt lat="45.12372" lon="6.12513">
        <ele>3091.74</ele>
        <time>2019-06-08T11:07:13Z</time>
      </trkpt>
      <trkpt lat="45.12353" lon="6.12484">
        <ele>3068.67</ele>
        <time>2019-06-08T11:07:20Z</time>
      </trkpt>
      <trkpt lat="45.12392" lon="6.12447">
        <ele>3054.25</ele>
        <time>2019-06-08T11:07:27Z</time>
      </trkpt>
      <trkpt lat="45.124" lon="6.12406">
        <ele>3035.98</ele>
        <time>2019-06-08T11:07:32Z</time>
      </trkpt>
      <trkpt lat="45.12414" lon="6.12359">
        <ele>3014.83</ele>
        <time>2019-06-08T11:07:35Z</time>
      </trkpt>
      <trkpt lat="45.12404" lon="6.12329">
        <ele>2998.01</ele>
        <time>2019-06-08T11:07:38Z</time>
      </trkpt>
      <trkpt lat="45.12392" lon="6.12278">
        <ele>2971.09</ele>
        <time>2019-06-08T11:07:42Z</time>
      </trkpt>
      <trkpt lat="45.12397" lon="6.12229">
        <ele>2947.54</ele>
        <time>2019-06-08T11:07:47Z</time>
      </trkpt>
      <trkpt lat="45.12379" lon="6.12181">
        <ele>2936</ele>
        <time>2019-06-08T11:08:06Z</time>
      </trkpt>
      <trkpt lat="45.12411" lon="6.12185">
        <ele>2928.79</ele>
        <time>2019-06-08T11:08:31Z</time>
      </trkpt>
      <trkpt lat="45.12441" lon="6.1218">
        <ele>2918.7</ele>
        <time>2019-06-08T11:13:19Z</time>
      </trkpt>
      <trkpt lat="45.12428" lon="6.1211">
        <ele>2903.8</ele>
        <time>2019-06-08T11:13:31Z</time>
      </trkpt>
      <trkpt lat="45.12428" lon="6.12037">
        <ele>2881.69</ele>
        <time>2019-06-08T11:13:41Z</time>
      </trkpt>
      <trkpt lat="45.12429" lon="6.11973">
        <ele>2877.36</ele>
        <time>2019-06-08T11:13:48Z</time>
      </trkpt>
      <trkpt lat="45.1242" lon="6.11905">
        <ele>2863.42</ele>
        <time>2019-06-08T11:14:17Z</time>
      </trkpt>
      <trkpt lat="45.12393" lon="6.11833">
        <ele>2858.14</ele>
        <time>2019-06-08T11:14:26Z</time>
      </trkpt>
      <trkpt lat="45.12358" lon="6.1178">
        <ele>2863.42</ele>
        <time>2019-06-08T11:15:18Z</time>
      </trkpt>
      <trkpt lat="45.12326" lon="6.11772">
        <ele>2864.39</ele>
        <time>2019-06-08T11:15:30Z</time>
      </trkpt>
      <trkpt lat="45.1229" lon="6.1174">
        <ele>2861.5</ele>
        <time>2019-06-08T11:15:37Z</time>
      </trkpt>
      <trkpt lat="45.12285" lon="6.11727">
        <ele>2856.69</ele>
        <time>2019-06-08T11:15:46Z</time>
      </trkpt>
      <trkpt lat="45.12269" lon="6.11678">
        <ele>2836.99</ele>
        <time>2019-06-08T11:15:55Z</time>
      </trkpt>
      <trkpt lat="45.12254" lon="6.11626">
        <ele>2816.32</ele>
        <time>2019-06-08T11:16:02Z</time>
      </trkpt>
      <trkpt lat="45.12281" lon="6.11585">
        <ele>2804.3</ele>
        <time>2019-06-08T11:16:08Z</time>
      </trkpt>
      <trkpt lat="45.12311" lon="6.11557">
        <ele>2799.98</ele>
        <time>2019-06-08T11:16:14Z</time>
      </trkpt>
      <trkpt lat="45.12356" lon="6.11535">
        <ele>2794.69</ele>
        <time>2019-06-08T11:16:24Z</time>
      </trkpt>
      <trkpt lat="45.12395" lon="6.11523">
        <ele>2790.36</ele>
        <time>2019-06-08T11:16:30Z</time>
      </trkpt>
      <trkpt lat="45.12445" lon="6.11507">
        <ele>2783.15</ele>
        <time>2019-06-08T11:16:36Z</time>
      </trkpt>
      <trkpt lat="45.12491" lon="6.11499">
        <ele>2777.87</ele>
        <time>2019-06-08T11:16:44Z</time>
      </trkpt>
      <trkpt lat="45.1254" lon="6.11491">
        <ele>2772.1</ele>
        <time>2019-06-08T11:16:55Z</time>
      </trkpt>
      <trkpt lat="45.12577" lon="6.11452">
        <ele>2761.04</ele>
        <time>2019-06-08T11:17:06Z</time>
      </trkpt>
      <trkpt lat="45.12602" lon="6.1139">
        <ele>2753.35</ele>
        <time>2019-06-08T11:17:24Z</time>
      </trkpt>
      <trkpt lat="45.12626" lon="6.11336">
        <ele>2747.1</ele>
        <time>2019-06-08T11:17:36Z</time>
      </trkpt>
      <trkpt lat="45.12639" lon="6.11276">
        <ele>2743.26</ele>
        <time>2019-06-08T11:17:56Z</time>
      </trkpt>
      <trkpt lat="45.12639" lon="6.11212">
        <ele>2737.97</ele>
        <time>2019-06-08T11:18:04Z</time>
      </trkpt>
      <trkpt lat="45.12648" lon="6.11141">
        <ele>2730.76</ele>
        <time>2019-06-08T11:18:13Z</time>
      </trkpt>
      <trkpt lat="45.12656" lon="6.11074">
        <ele>2724.51</ele>
        <time>2019-06-08T11:18:22Z</time>
      </trkpt>
      <trkpt lat="45.12657" lon="6.1101">
        <ele>2719.23</ele>
        <time>2019-06-08T11:18:30Z</time>
      </trkpt>
      <trkpt lat="45.12642" lon="6.10952">
        <ele>2713.46</ele>
        <time>2019-06-08T11:18:40Z</time>
      </trkpt>
      <trkpt lat="45.12612" lon="6.10906">
        <ele>2707.69</ele>
        <time>2019-06-08T11:18:56Z</time>
      </trkpt>
      <trkpt lat="45.1258" lon="6.10857">
        <ele>2702.4</ele>
        <time>2019-06-08T11:19:22Z</time>
      </trkpt>
      <trkpt lat="45.12551" lon="6.10807">
        <ele>2697.6</ele>
        <time>2019-06-08T11:20:47Z</time>
      </trkpt>
      <trkpt lat="45.12509" lon="6.10791">
        <ele>2695.67</ele>
        <time>2019-06-08T11:21:20Z</time>
      </trkpt>
      <trkpt lat="45.12461" lon="6.10794">
        <ele>2690.39</ele>
        <time>2019-06-08T11:21:39Z</time>
      </trkpt>
      <trkpt lat="45.12416" lon="6.10778">
        <ele>2685.1</ele>
        <time>2019-06-08T11:21:57Z</time>
      </trkpt>
      <trkpt lat="45.12372" lon="6.1076">
        <ele>2678.37</ele>
        <time>2019-06-08T11:22:12Z</time>
      </trkpt>
      <trkpt lat="45.12325" lon="6.10743">
        <ele>2672.12</ele>
        <time>2019-06-08T11:22:26Z</time>
      </trkpt>
      <trkpt lat="45.12277" lon="6.1073">
        <ele>2665.87</ele>
        <time>2019-06-08T11:22:40Z</time>
      </trkpt>
      <trkpt lat="45.12231" lon="6.10707">
        <ele>2663.47</ele>
        <time>2019-06-08T11:22:53Z</time>
      </trkpt>
      <trkpt lat="45.12186" lon="6.10706">
        <ele>2661.55</ele>
        <time>2019-06-08T11:23:04Z</time>
      </trkpt>
      <trkpt lat="45.12155" lon="6.10666">
        <ele>2662.99</ele>
        <time>2019-06-08T11:23:54Z</time>
      </trkpt>
      <trkpt lat="45.12141" lon="6.10609">
        <ele>2662.03</ele>
        <time>2019-06-08T11:25:32Z</time>
      </trkpt>
      <trkpt lat="45.121" lon="6.10566">
        <ele>2659.14</ele>
        <time>2019-06-08T11:25:46Z</time>
      </trkpt>
      <trkpt lat="45.12058" lon="6.10535">
        <ele>2656.26</ele>
        <time>2019-06-08T11:25:53Z</time>
      </trkpt>
      <trkpt lat="45.12009" lon="6.1053">
        <ele>2650.97</ele>
        <time>2019-06-08T11:26:00Z</time>
      </trkpt>
      <trkpt lat="45.11966" lon="6.10507">
        <ele>2646.65</ele>
        <time>2019-06-08T11:26:09Z</time>
      </trkpt>
      <trkpt lat="45.11917" lon="6.10494">
        <ele>2642.8</ele>
        <time>2019-06-08T11:26:18Z</time>
      </trkpt>
      <trkpt lat="45.11875" lon="6.1046">
        <ele>2637.51</ele>
        <time>2019-06-08T11:26:26Z</time>
      </trkpt>
      <trkpt lat="45.11831" lon="6.10449">
        <ele>2631.75</ele>
        <time>2019-06-08T11:26:36Z</time>
      </trkpt>
      <trkpt lat="45.11791" lon="6.10463">
        <ele>2623.58</ele>
        <time>2019-06-08T11:26:44Z</time>
      </trkpt>
      <trkpt lat="45.1177" lon="6.10438">
        <ele>2619.25</ele>
        <time>2019-06-08T11:26:53Z</time>
      </trkpt>
      <trkpt lat="45.11725" lon="6.10407">
        <ele>2612.52</ele>
        <time>2019-06-08T11:27:01Z</time>
      </trkpt>
      <trkpt lat="45.11687" lon="6.1037">
        <ele>2596.66</ele>
        <time>2019-06-08T11:27:08Z</time>
      </trkpt>
      <trkpt lat="45.11651" lon="6.10326">
        <ele>2584.64</ele>
        <time>2019-06-08T11:27:14Z</time>
      </trkpt>
      <trkpt lat="45.11624" lon="6.10273">
        <ele>2571.66</ele>
        <time>2019-06-08T11:27:21Z</time>
      </trkpt>
      <trkpt lat="45.11599" lon="6.10223">
        <ele>2555.8</ele>
        <time>2019-06-08T11:27:31Z</time>
      </trkpt>
      <trkpt lat="45.11561" lon="6.10185">
        <ele>2538.02</ele>
        <time>2019-06-08T11:27:41Z</time>
      </trkpt>
      <trkpt lat="45.11528" lon="6.10142">
        <ele>2521.68</ele>
        <time>2019-06-08T11:27:48Z</time>
      </trkpt>
      <trkpt lat="45.11497" lon="6.10097">
        <ele>2501.01</ele>
        <time>2019-06-08T11:27:56Z</time>
      </trkpt>
      <trkpt lat="45.11465" lon="6.10047">
        <ele>2485.15</ele>
        <time>2019-06-08T11:28:05Z</time>
      </trkpt>
      <trkpt lat="45.11433" lon="6.09995">
        <ele>2469.76</ele>
        <time>2019-06-08T11:28:21Z</time>
      </trkpt>
      <trkpt lat="45.11387" lon="6.09955">
        <ele>2456.79</ele>
        <time>2019-06-08T11:28:32Z</time>
      </trkpt>
      <trkpt lat="45.11343" lon="6.09933">
        <ele>2447.65</ele>
        <time>2019-06-08T11:28:43Z</time>
      </trkpt>
      <trkpt lat="45.11293" lon="6.09915">
        <ele>2437.56</ele>
        <time>2019-06-08T11:31:10Z</time>
      </trkpt>
      <trkpt lat="45.1125" lon="6.09888">
        <ele>2425.06</ele>
        <time>2019-06-08T11:31:20Z</time>
      </trkpt>
      <trkpt lat="45.11204" lon="6.09868">
        <ele>2417.85</ele>
        <time>2019-06-08T11:31:30Z</time>
      </trkpt>
      <trkpt lat="45.11158" lon="6.09848">
        <ele>2410.64</ele>
        <time>2019-06-08T11:31:40Z</time>
      </trkpt>
      <trkpt lat="45.11113" lon="6.09839">
        <ele>2403.91</ele>
        <time>2019-06-08T11:31:49Z</time>
      </trkpt>
      <trkpt lat="45.11069" lon="6.09819">
        <ele>2397.67</ele>
        <time>2019-06-08T11:31:58Z</time>
      </trkpt>
      <trkpt lat="45.11024" lon="6.09798">
        <ele>2393.82</ele>
        <time>2019-06-08T11:32:54Z</time>
      </trkpt>
      <trkpt lat="45.1098" lon="6.09777">
        <ele>2386.61</ele>
        <time>2019-06-08T11:33:08Z</time>
      </trkpt>
      <trkpt lat="45.10934" lon="6.09769">
        <ele>2381.8</ele>
        <time>2019-06-08T11:33:21Z</time>
      </trkpt>
      <trkpt lat="45.10894" lon="6.09754">
        <ele>2376.04</ele>
        <time>2019-06-08T11:34:08Z</time>
      </trkpt>
      <trkpt lat="45.10859" lon="6.09717">
        <ele>2370.27</ele>
        <time>2019-06-08T11:35:02Z</time>
      </trkpt>
      <trkpt lat="45.10839" lon="6.09658">
        <ele>2358.25</ele>
        <time>2019-06-08T11:35:12Z</time>
      </trkpt>
      <trkpt lat="45.10842" lon="6.09604">
        <ele>2344.79</ele>
        <time>2019-06-08T11:35:21Z</time>
      </trkpt>
      <trkpt lat="45.1082" lon="6.09548">
        <ele>2334.22</ele>
        <time>2019-06-08T11:36:40Z</time>
      </trkpt>
      <trkpt lat="45.10816" lon="6.09491">
        <ele>2321.24</ele>
        <time>2019-06-08T11:37:42Z</time>
      </trkpt>
      <trkpt lat="45.10825" lon="6.09437">
        <ele>2313.07</ele>
        <time>2019-06-08T11:38:41Z</time>
      </trkpt>
      <trkpt lat="45.10799" lon="6.09392">
        <ele>2301.53</ele>
        <time>2019-06-08T11:39:37Z</time>
      </trkpt>
      <trkpt lat="45.10767" lon="6.09347">
        <ele>2286.63</ele>
        <time>2019-06-08T11:40:27Z</time>
      </trkpt>
      <trkpt lat="45.10729" lon="6.09346">
        <ele>2277.5</ele>
        <time>2019-06-08T11:41:11Z</time>
      </trkpt>
      <trkpt lat="45.10689" lon="6.09343">
        <ele>2270.29</ele>
        <time>2019-06-08T11:42:25Z</time>
      </trkpt>
      <trkpt lat="45.10665" lon="6.09299">
        <ele>2259.24</ele>
      </trkpt>
      <trkpt lat="45.10641" lon="6.09245">
        <ele>2246.74</ele>
      </trkpt>
      <trkpt lat="45.10601" lon="6.09208">
        <ele>2238.09</ele>
      </trkpt>
      <trkpt lat="45.10554" lon="6.09204">
        <ele>2244.82</ele>
      </trkpt>
      <trkpt lat="45.10512" lon="6.09223">
        <ele>2250.58</ele>
      </trkpt>
      <trkpt lat="45.10468" lon="6.09227">
        <ele>2248.18</ele>
      </trkpt>
      <trkpt lat="45.10425" lon="6.09239">
        <ele>2249.14</ele>
      </trkpt>
      <trkpt lat="45.10383" lon="6.09245">
        <ele>2246.26</ele>
      </trkpt>
      <trkpt lat="45.1035" lon="6.09236">
        <ele>2239.53</ele>
      </trkpt>
    </trkseg>
  </trk>
</gpx>